sensor_id;sensor_type;location;lat;lon;timestamp;pressure;altitude;pressure_sealevel;temperature;humidity
15634;BME280;14654;48.898;8.308;2023-07-24T00:02:06;99468.91;;;19.51;100.00
15634;BME280;14654;48.898;8.308;2023-07-24T00:04:32;99462.78;;;19.50;100.00
15634;BME280;14654;48.898;8.308;2023-07-24T00:06:57;99468.97;;;19.49;100.00
15634;BME280;14654;48.898;8.308;2023-07-24T00:09:23;99458.41;;;19.51;100.00
15634;BME280;14654;48.898;8.308;2023-07-24T00:11:48;99452.41;;;19.49;100.00
15634;BME280;14654;48.898;8.308;2023-07-24T00:14:15;99456.97;;;19.45;100.00
15634;BME280;14654;48.898;8.308;2023-07-24T00:16:40;99457.72;;;19.47;100.00
15634;BME280;14654;48.898;8.308;2023-07-24T00:19:06;99453.34;;;19.48;100.00
15634;BME280;14654;48.898;8.308;2023-07-24T00:21:31;99460.16;;;19.50;100.00
15634;BME280;14654;48.898;8.308;2023-07-24T00:23:56;99456.63;;;19.52;100.00
15634;BME280;14654;48.898;8.308;2023-07-24T00:26:22;99453.88;;;19.53;100.00
15634;BME280;14654;48.898;8.308;2023-07-24T00:28:47;99465.25;;;19.54;100.00
15634;BME280;14654;48.898;8.308;2023-07-24T00:31:12;99454.75;;;19.54;100.00
15634;BME280;14654;48.898;8.308;2023-07-24T00:33:38;99448.75;;;19.52;100.00
15634;BME280;14654;48.898;8.308;2023-07-24T00:36:03;99449.78;;;19.49;100.00
15634;BME280;14654;48.898;8.308;2023-07-24T00:38:28;99442.25;;;19.43;100.00
15634;BME280;14654;48.898;8.308;2023-07-24T00:40:54;99432.88;;;19.39;100.00
15634;BME280;14654;48.898;8.308;2023-07-24T00:43:19;99439.25;;;19.34;100.00
15634;BME280;14654;48.898;8.308;2023-07-24T00:45:45;99441.03;;;19.34;100.00
15634;BME280;14654;48.898;8.308;2023-07-24T00:48:12;99434.09;;;19.33;100.00
15634;BME280;14654;48.898;8.308;2023-07-24T00:50:37;99427.31;;;19.29;100.00
15634;BME280;14654;48.898;8.308;2023-07-24T00:53:04;99430.22;;;19.24;100.00
15634;BME280;14654;48.898;8.308;2023-07-24T00:55:30;99430.41;;;19.21;100.00
15634;BME280;14654;48.898;8.308;2023-07-24T00:57:57;99420.94;;;19.18;100.00
15634;BME280;14654;48.898;8.308;2023-07-24T01:00:23;99415.03;;;19.15;100.00
15634;BME280;14654;48.898;8.308;2023-07-24T01:02:48;99409.97;;;19.12;100.00
15634;BME280;14654;48.898;8.308;2023-07-24T01:05:14;99411.66;;;19.13;100.00
15634;BME280;14654;48.898;8.308;2023-07-24T01:07:41;99410.81;;;19.12;100.00
15634;BME280;14654;48.898;8.308;2023-07-24T01:10:07;99405.59;;;19.12;100.00
15634;BME280;14654;48.898;8.308;2023-07-24T01:12:40;99408.09;;;19.14;100.00
15634;BME280;14654;48.898;8.308;2023-07-24T01:17:41;99420.47;;;19.12;100.00
15634;BME280;14654;48.898;8.308;2023-07-24T01:20:10;99407.50;;;19.09;100.00
15634;BME280;14654;48.898;8.308;2023-07-24T01:25:32;99411.63;;;18.98;100.00
15634;BME280;14654;48.898;8.308;2023-07-24T01:28:00;99408.38;;;18.93;100.00
15634;BME280;14654;48.898;8.308;2023-07-24T01:30:25;99414.75;;;18.89;100.00
15634;BME280;14654;48.898;8.308;2023-07-24T01:32:51;99420.94;;;18.88;100.00
15634;BME280;14654;48.898;8.308;2023-07-24T01:35:16;99414.81;;;18.87;100.00
15634;BME280;14654;48.898;8.308;2023-07-24T01:37:43;99410.34;;;18.89;100.00
15634;BME280;14654;48.898;8.308;2023-07-24T01:40:10;99406.97;;;18.87;100.00
15634;BME280;14654;48.898;8.308;2023-07-24T01:42:36;99417.63;;;18.84;100.00
15634;BME280;14654;48.898;8.308;2023-07-24T01:45:02;99417.97;;;18.78;100.00
15634;BME280;14654;48.898;8.308;2023-07-24T01:47:28;99413.19;;;18.70;100.00
15634;BME280;14654;48.898;8.308;2023-07-24T01:49:55;99417.75;;;18.67;100.00
15634;BME280;14654;48.898;8.308;2023-07-24T01:52:20;99419.94;;;18.58;100.00
15634;BME280;14654;48.898;8.308;2023-07-24T01:54:45;99419.34;;;18.53;100.00
15634;BME280;14654;48.898;8.308;2023-07-24T01:57:11;99413.44;;;18.50;100.00
15634;BME280;14654;48.898;8.308;2023-07-24T01:59:36;99412.78;;;18.46;100.00
15634;BME280;14654;48.898;8.308;2023-07-24T02:02:01;99405.09;;;18.43;100.00
15634;BME280;14654;48.898;8.308;2023-07-24T02:04:27;99400.88;;;18.40;100.00
15634;BME280;14654;48.898;8.308;2023-07-24T02:06:52;99392.25;;;18.38;100.00
15634;BME280;14654;48.898;8.308;2023-07-24T02:09:18;99396.63;;;18.38;100.00
15634;BME280;14654;48.898;8.308;2023-07-24T02:11:43;99386.25;;;18.36;100.00
15634;BME280;14654;48.898;8.308;2023-07-24T02:14:08;99385.44;;;18.36;100.00
15634;BME280;14654;48.898;8.308;2023-07-24T02:16:34;99393.19;;;18.37;100.00
15634;BME280;14654;48.898;8.308;2023-07-24T02:19:00;99387.00;;;18.38;100.00
15634;BME280;14654;48.898;8.308;2023-07-24T02:21:25;99385.59;;;18.33;100.00
15634;BME280;14654;48.898;8.308;2023-07-24T02:23:51;99381.38;;;18.30;100.00
15634;BME280;14654;48.898;8.308;2023-07-24T02:26:16;99383.13;;;18.30;100.00
15634;BME280;14654;48.898;8.308;2023-07-24T02:28:41;99371.91;;;18.27;100.00
15634;BME280;14654;48.898;8.308;2023-07-24T02:31:06;99377.13;;;18.27;100.00
15634;BME280;14654;48.898;8.308;2023-07-24T02:33:32;99379.09;;;18.24;100.00
15634;BME280;14654;48.898;8.308;2023-07-24T02:35:57;99379.25;;;18.21;100.00
15634;BME280;14654;48.898;8.308;2023-07-24T02:38:22;99382.78;;;18.20;100.00
15634;BME280;14654;48.898;8.308;2023-07-24T02:40:48;99372.97;;;18.23;100.00
15634;BME280;14654;48.898;8.308;2023-07-24T02:43:14;99366.59;;;18.29;100.00
15634;BME280;14654;48.898;8.308;2023-07-24T02:45:40;99365.41;;;18.35;100.00
15634;BME280;14654;48.898;8.308;2023-07-24T02:48:05;99369.50;;;18.39;100.00
15634;BME280;14654;48.898;8.308;2023-07-24T02:50:32;99357.19;;;18.41;100.00
15634;BME280;14654;48.898;8.308;2023-07-24T02:52:58;99356.19;;;18.43;100.00
15634;BME280;14654;48.898;8.308;2023-07-24T02:55:23;99345.59;;;18.45;100.00
15634;BME280;14654;48.898;8.308;2023-07-24T02:57:50;99335.94;;;18.46;100.00
15634;BME280;14654;48.898;8.308;2023-07-24T03:00:15;99334.34;;;18.43;100.00
15634;BME280;14654;48.898;8.308;2023-07-24T03:02:41;99332.66;;;18.42;100.00
15634;BME280;14654;48.898;8.308;2023-07-24T03:05:06;99336.22;;;18.41;100.00
15634;BME280;14654;48.898;8.308;2023-07-24T03:07:32;99328.28;;;18.42;100.00
15634;BME280;14654;48.898;8.308;2023-07-24T03:09:57;99327.25;;;18.45;100.00
15634;BME280;14654;48.898;8.308;2023-07-24T03:12:23;99325.56;;;18.44;100.00
15634;BME280;14654;48.898;8.308;2023-07-24T03:14:48;99315.94;;;18.45;100.00
15634;BME280;14654;48.898;8.308;2023-07-24T03:17:13;99314.00;;;18.48;100.00
15634;BME280;14654;48.898;8.308;2023-07-24T03:19:40;99320.81;;;18.51;100.00
15634;BME280;14654;48.898;8.308;2023-07-24T03:22:05;99326.72;;;18.54;100.00
15634;BME280;14654;48.898;8.308;2023-07-24T03:24:31;99328.34;;;18.57;100.00
15634;BME280;14654;48.898;8.308;2023-07-24T03:26:56;99328.16;;;18.60;100.00
15634;BME280;14654;48.898;8.308;2023-07-24T03:29:21;99328.06;;;18.62;100.00
15634;BME280;14654;48.898;8.308;2023-07-24T03:31:47;99329.75;;;18.63;100.00
15634;BME280;14654;48.898;8.308;2023-07-24T03:34:12;99340.06;;;18.66;100.00
15634;BME280;14654;48.898;8.308;2023-07-24T03:36:37;99337.25;;;18.69;100.00
15634;BME280;14654;48.898;8.308;2023-07-24T03:39:06;99345.88;;;18.71;100.00
15634;BME280;14654;48.898;8.308;2023-07-24T03:41:31;99340.34;;;18.76;100.00
15634;BME280;14654;48.898;8.308;2023-07-24T03:43:57;99334.09;;;18.78;100.00
15634;BME280;14654;48.898;8.308;2023-07-24T03:46:22;99331.38;;;18.80;100.00
15634;BME280;14654;48.898;8.308;2023-07-24T03:48:47;99345.25;;;18.82;100.00
15634;BME280;14654;48.898;8.308;2023-07-24T03:51:15;99352.09;;;18.84;100.00
15634;BME280;14654;48.898;8.308;2023-07-24T03:53:40;99338.81;;;18.87;100.00
15634;BME280;14654;48.898;8.308;2023-07-24T03:56:05;99333.38;;;18.91;100.00
15634;BME280;14654;48.898;8.308;2023-07-24T03:58:31;99328.03;;;18.92;100.00
15634;BME280;14654;48.898;8.308;2023-07-24T04:00:56;99335.84;;;18.94;100.00
15634;BME280;14654;48.898;8.308;2023-07-24T04:03:21;99336.63;;;18.96;100.00
15634;BME280;14654;48.898;8.308;2023-07-24T04:05:47;99330.53;;;18.95;100.00
15634;BME280;14654;48.898;8.308;2023-07-24T04:08:12;99326.88;;;18.98;100.00
15634;BME280;14654;48.898;8.308;2023-07-24T04:10:37;99319.84;;;18.98;100.00
15634;BME280;14654;48.898;8.308;2023-07-24T04:13:03;99314.59;;;18.98;100.00
15634;BME280;14654;48.898;8.308;2023-07-24T04:15:28;99310.31;;;18.97;100.00
15634;BME280;14654;48.898;8.308;2023-07-24T04:17:53;99311.22;;;18.96;100.00
15634;BME280;14654;48.898;8.308;2023-07-24T04:20:18;99308.59;;;18.96;100.00
15634;BME280;14654;48.898;8.308;2023-07-24T04:22:44;99311.16;;;18.98;100.00
15634;BME280;14654;48.898;8.308;2023-07-24T04:25:09;99307.56;;;18.99;100.00
15634;BME280;14654;48.898;8.308;2023-07-24T04:27:34;99307.50;;;19.00;100.00
15634;BME280;14654;48.898;8.308;2023-07-24T04:30:00;99303.00;;;19.02;100.00
15634;BME280;14654;48.898;8.308;2023-07-24T04:32:28;99302.06;;;19.03;100.00
15634;BME280;14654;48.898;8.308;2023-07-24T04:34:53;99298.53;;;19.04;100.00
15634;BME280;14654;48.898;8.308;2023-07-24T04:37:19;99306.09;;;19.09;100.00
15634;BME280;14654;48.898;8.308;2023-07-24T04:39:44;99303.31;;;19.12;100.00
15634;BME280;14654;48.898;8.308;2023-07-24T04:42:09;99291.78;;;19.15;100.00
15634;BME280;14654;48.898;8.308;2023-07-24T04:44:35;99290.56;;;19.21;100.00
15634;BME280;14654;48.898;8.308;2023-07-24T04:47:00;99292.91;;;19.25;100.00
15634;BME280;14654;48.898;8.308;2023-07-24T04:49:30;99287.34;;;19.30;100.00
15634;BME280;14654;48.898;8.308;2023-07-24T04:51:56;99285.41;;;19.33;100.00
15634;BME280;14654;48.898;8.308;2023-07-24T04:54:21;99283.53;;;19.36;100.00
15634;BME280;14654;48.898;8.308;2023-07-24T04:56:46;99294.13;;;19.34;100.00
15634;BME280;14654;48.898;8.308;2023-07-24T04:59:12;99299.38;;;19.34;100.00
15634;BME280;14654;48.898;8.308;2023-07-24T05:01:37;99303.66;;;19.35;100.00
15634;BME280;14654;48.898;8.308;2023-07-24T05:04:03;99305.25;;;19.38;100.00
15634;BME280;14654;48.898;8.308;2023-07-24T05:06:28;99317.38;;;19.40;100.00
15634;BME280;14654;48.898;8.308;2023-07-24T05:08:53;99306.75;;;19.42;100.00
15634;BME280;14654;48.898;8.308;2023-07-24T05:11:19;99320.63;;;19.44;100.00
15634;BME280;14654;48.898;8.308;2023-07-24T05:13:44;99318.84;;;19.44;100.00
15634;BME280;14654;48.898;8.308;2023-07-24T05:16:09;99310.03;;;19.45;100.00
15634;BME280;14654;48.898;8.308;2023-07-24T05:18:35;99303.84;;;19.46;100.00
15634;BME280;14654;48.898;8.308;2023-07-24T05:21:00;99310.03;;;19.45;100.00
15634;BME280;14654;48.898;8.308;2023-07-24T05:23:25;99307.41;;;19.45;100.00
15634;BME280;14654;48.898;8.308;2023-07-24T05:26:01;99312.66;;;19.45;100.00
15634;BME280;14654;48.898;8.308;2023-07-24T05:28:27;99327.38;;;19.48;100.00
15634;BME280;14654;48.898;8.308;2023-07-24T05:30:53;99340.41;;;19.49;100.00
15634;BME280;14654;48.898;8.308;2023-07-24T05:33:18;99341.97;;;19.52;100.00
15634;BME280;14654;48.898;8.308;2023-07-24T05:35:44;99344.41;;;19.55;100.00
15634;BME280;14654;48.898;8.308;2023-07-24T05:38:09;99353.91;;;19.58;100.00
15634;BME280;14654;48.898;8.308;2023-07-24T05:40:35;99359.88;;;19.60;100.00
15634;BME280;14654;48.898;8.308;2023-07-24T05:43:00;99354.56;;;19.61;100.00
15634;BME280;14654;48.898;8.308;2023-07-24T05:45:26;99358.88;;;19.62;100.00
15634;BME280;14654;48.898;8.308;2023-07-24T05:47:52;99346.56;;;19.63;100.00
15634;BME280;14654;48.898;8.308;2023-07-24T05:50:17;99341.97;;;19.67;100.00
15634;BME280;14654;48.898;8.308;2023-07-24T05:52:42;99343.59;;;19.69;100.00
15634;BME280;14654;48.898;8.308;2023-07-24T05:55:08;99342.47;;;19.73;100.00
15634;BME280;14654;48.898;8.308;2023-07-24T05:57:34;99331.75;;;19.76;100.00
15634;BME280;14654;48.898;8.308;2023-07-24T05:59:59;99331.38;;;19.83;100.00
15634;BME280;14654;48.898;8.308;2023-07-24T06:02:24;99335.53;;;19.87;100.00
15634;BME280;14654;48.898;8.308;2023-07-24T06:04:50;99338.81;;;19.90;100.00
15634;BME280;14654;48.898;8.308;2023-07-24T06:07:15;99342.81;;;19.96;100.00
15634;BME280;14654;48.898;8.308;2023-07-24T06:09:40;99332.88;;;20.01;100.00
15634;BME280;14654;48.898;8.308;2023-07-24T06:12:06;99333.41;;;20.06;100.00
15634;BME280;14654;48.898;8.308;2023-07-24T06:14:31;99326.09;;;20.12;100.00
15634;BME280;14654;48.898;8.308;2023-07-24T06:16:57;99333.66;;;20.16;100.00
15634;BME280;14654;48.898;8.308;2023-07-24T06:19:22;99336.94;;;20.20;100.00
15634;BME280;14654;48.898;8.308;2023-07-24T06:21:47;99335.91;;;20.22;100.00
15634;BME280;14654;48.898;8.308;2023-07-24T06:24:13;99333.16;;;20.24;100.00
15634;BME280;14654;48.898;8.308;2023-07-24T06:26:39;99344.41;;;20.26;100.00
15634;BME280;14654;48.898;8.308;2023-07-24T06:29:04;99339.91;;;20.28;100.00
15634;BME280;14654;48.898;8.308;2023-07-24T06:31:29;99334.47;;;20.31;100.00
15634;BME280;14654;48.898;8.308;2023-07-24T06:33:55;99346.44;;;20.35;100.00
15634;BME280;14654;48.898;8.308;2023-07-24T06:36:20;99344.38;;;20.40;100.00
15634;BME280;14654;48.898;8.308;2023-07-24T06:38:45;99328.97;;;20.49;100.00
15634;BME280;14654;48.898;8.308;2023-07-24T06:41:13;99331.78;;;20.59;100.00
15634;BME280;14654;48.898;8.308;2023-07-24T06:43:38;99332.91;;;20.69;100.00
15634;BME280;14654;48.898;8.308;2023-07-24T06:46:04;99335.03;;;20.77;100.00
15634;BME280;14654;48.898;8.308;2023-07-24T06:48:30;99336.31;;;20.84;100.00
15634;BME280;14654;48.898;8.308;2023-07-24T06:50:55;99326.22;;;20.91;100.00
15634;BME280;14654;48.898;8.308;2023-07-24T06:53:20;99324.66;;;21.01;100.00
15634;BME280;14654;48.898;8.308;2023-07-24T06:55:46;99322.22;;;21.11;100.00
15634;BME280;14654;48.898;8.308;2023-07-24T06:58:11;99323.72;;;21.28;100.00
15634;BME280;14654;48.898;8.308;2023-07-24T07:00:36;99324.75;;;21.38;100.00
15634;BME280;14654;48.898;8.308;2023-07-24T07:03:02;99342.97;;;21.41;100.00
15634;BME280;14654;48.898;8.308;2023-07-24T07:05:27;99374.13;;;21.35;100.00
15634;BME280;14654;48.898;8.308;2023-07-24T07:07:52;99365.38;;;21.21;100.00
15634;BME280;14654;48.898;8.308;2023-07-24T07:10:18;99350.53;;;21.07;100.00
15634;BME280;14654;48.898;8.308;2023-07-24T07:12:43;99342.34;;;20.99;100.00
15634;BME280;14654;48.898;8.308;2023-07-24T07:15:08;99348.94;;;20.92;100.00
15634;BME280;14654;48.898;8.308;2023-07-24T07:17:34;99355.34;;;20.88;100.00
15634;BME280;14654;48.898;8.308;2023-07-24T07:19:59;99363.03;;;20.91;100.00
15634;BME280;14654;48.898;8.308;2023-07-24T07:22:24;99367.97;;;20.95;100.00
15634;BME280;14654;48.898;8.308;2023-07-24T07:24:50;99363.06;;;21.04;100.00
15634;BME280;14654;48.898;8.308;2023-07-24T07:27:15;99374.81;;;21.11;100.00
15634;BME280;14654;48.898;8.308;2023-07-24T07:29:43;99378.84;;;21.16;100.00
15634;BME280;14654;48.898;8.308;2023-07-24T07:32:08;99377.81;;;21.19;100.00
15634;BME280;14654;48.898;8.308;2023-07-24T07:34:33;99378.53;;;21.21;100.00
15634;BME280;14654;48.898;8.308;2023-07-24T07:37:01;99379.38;;;21.22;100.00
15634;BME280;14654;48.898;8.308;2023-07-24T07:39:26;99389.81;;;21.23;100.00
15634;BME280;14654;48.898;8.308;2023-07-24T07:41:51;99393.16;;;21.25;100.00
15634;BME280;14654;48.898;8.308;2023-07-24T07:44:17;99393.06;;;21.27;100.00
15634;BME280;14654;48.898;8.308;2023-07-24T07:46:42;99399.91;;;21.29;100.00
15634;BME280;14654;48.898;8.308;2023-07-24T07:49:08;99394.56;;;21.31;100.00
15634;BME280;14654;48.898;8.308;2023-07-24T07:51:33;99371.56;;;21.33;100.00
15634;BME280;14654;48.898;8.308;2023-07-24T07:53:58;99376.75;;;21.35;100.00
15634;BME280;14654;48.898;8.308;2023-07-24T07:56:24;99373.06;;;21.37;100.00
15634;BME280;14654;48.898;8.308;2023-07-24T07:58:49;99377.28;;;21.40;100.00
15634;BME280;14654;48.898;8.308;2023-07-24T08:01:14;99372.44;;;21.46;100.00
15634;BME280;14654;48.898;8.308;2023-07-24T08:03:40;99367.69;;;21.52;100.00
15634;BME280;14654;48.898;8.308;2023-07-24T08:06:05;99357.56;;;21.58;100.00
15634;BME280;14654;48.898;8.308;2023-07-24T08:08:31;99357.59;;;21.71;100.00
15634;BME280;14654;48.898;8.308;2023-07-24T08:10:57;99345.44;;;21.82;100.00
15634;BME280;14654;48.898;8.308;2023-07-24T08:13:22;99342.56;;;21.98;100.00
15634;BME280;14654;48.898;8.308;2023-07-24T08:15:49;99333.66;;;22.12;100.00
15634;BME280;14654;48.898;8.308;2023-07-24T08:18:14;99325.59;;;22.26;100.00
15634;BME280;14654;48.898;8.308;2023-07-24T08:20:40;99324.47;;;22.42;100.00
15634;BME280;14654;48.898;8.308;2023-07-24T08:23:05;99306.69;;;22.57;100.00
15634;BME280;14654;48.898;8.308;2023-07-24T08:25:31;99306.50;;;22.71;100.00
15634;BME280;14654;48.898;8.308;2023-07-24T08:27:56;99309.88;;;22.84;100.00
15634;BME280;14654;48.898;8.308;2023-07-24T08:30:21;99305.94;;;23.02;100.00
15634;BME280;14654;48.898;8.308;2023-07-24T08:32:47;99313.06;;;23.24;100.00
15634;BME280;14654;48.898;8.308;2023-07-24T08:35:15;99322.69;;;23.48;100.00
15634;BME280;14654;48.898;8.308;2023-07-24T08:37:43;99321.34;;;23.65;100.00
15634;BME280;14654;48.898;8.308;2023-07-24T08:40:10;99329.88;;;23.80;100.00
15634;BME280;14654;48.898;8.308;2023-07-24T08:42:38;99322.88;;;24.01;100.00
15634;BME280;14654;48.898;8.308;2023-07-24T08:45:07;99314.31;;;24.09;100.00
15634;BME280;14654;48.898;8.308;2023-07-24T08:47:34;99316.66;;;24.35;100.00
15634;BME280;14654;48.898;8.308;2023-07-24T08:50:01;99314.47;;;24.61;100.00
15634;BME280;14654;48.898;8.308;2023-07-24T08:52:27;99308.66;;;24.79;100.00
15634;BME280;14654;48.898;8.308;2023-07-24T08:54:54;99316.66;;;24.89;100.00
15634;BME280;14654;48.898;8.308;2023-07-24T08:57:20;99317.84;;;25.06;100.00
15634;BME280;14654;48.898;8.308;2023-07-24T08:59:45;99316.72;;;25.30;100.00
15634;BME280;14654;48.898;8.308;2023-07-24T09:02:10;99321.59;;;25.55;100.00
15634;BME280;14654;48.898;8.308;2023-07-24T09:04:36;99323.75;;;25.81;100.00
15634;BME280;14654;48.898;8.308;2023-07-24T09:07:02;99311.09;;;26.05;100.00
15634;BME280;14654;48.898;8.308;2023-07-24T09:09:29;99328.31;;;26.20;100.00
15634;BME280;14654;48.898;8.308;2023-07-24T09:11:56;99331.13;;;26.28;100.00
15634;BME280;14654;48.898;8.308;2023-07-24T09:14:24;99334.03;;;26.25;99.85
15634;BME280;14654;48.898;8.308;2023-07-24T09:17:04;99339.78;;;26.21;99.34
15634;BME280;14654;48.898;8.308;2023-07-24T09:19:30;99342.84;;;26.16;100.00
15634;BME280;14654;48.898;8.308;2023-07-24T09:21:55;99339.06;;;26.19;99.29
15634;BME280;14654;48.898;8.308;2023-07-24T09:24:20;99333.06;;;26.16;99.83
15634;BME280;14654;48.898;8.308;2023-07-24T09:26:53;99332.09;;;26.17;98.63
15634;BME280;14654;48.898;8.308;2023-07-24T09:29:18;99342.75;;;25.86;99.53
15634;BME280;14654;48.898;8.308;2023-07-24T09:31:44;99343.94;;;25.72;99.77
15634;BME280;14654;48.898;8.308;2023-07-24T09:34:17;99330.09;;;25.59;99.24
15634;BME280;14654;48.898;8.308;2023-07-24T09:36:44;99333.13;;;25.23;99.98
15634;BME280;14654;48.898;8.308;2023-07-24T09:39:10;99339.22;;;25.14;100.00
15634;BME280;14654;48.898;8.308;2023-07-24T09:41:39;99344.16;;;24.98;100.00
15634;BME280;14654;48.898;8.308;2023-07-24T09:44:05;99338.72;;;24.78;100.00
15634;BME280;14654;48.898;8.308;2023-07-24T09:46:31;99346.34;;;24.60;100.00
15634;BME280;14654;48.898;8.308;2023-07-24T09:48:57;99347.88;;;24.41;100.00
15634;BME280;14654;48.898;8.308;2023-07-24T09:51:23;99331.81;;;24.22;100.00
15634;BME280;14654;48.898;8.308;2023-07-24T09:54:31;99333.44;;;24.01;100.00
15634;BME280;14654;48.898;8.308;2023-07-24T09:56:55;99339.59;;;23.79;100.00
15634;BME280;14654;48.898;8.308;2023-07-24T09:59:21;99336.50;;;23.51;100.00
15634;BME280;14654;48.898;8.308;2023-07-24T10:01:47;99327.59;;;23.29;100.00
15634;BME280;14654;48.898;8.308;2023-07-24T10:04:14;99332.97;;;23.05;100.00
15634;BME280;14654;48.898;8.308;2023-07-24T10:06:41;99339.28;;;22.91;100.00
15634;BME280;14654;48.898;8.308;2023-07-24T10:09:08;99341.28;;;22.76;100.00
15634;BME280;14654;48.898;8.308;2023-07-24T10:11:34;99347.84;;;22.71;100.00
15634;BME280;14654;48.898;8.308;2023-07-24T10:13:59;99346.25;;;22.57;100.00
15634;BME280;14654;48.898;8.308;2023-07-24T10:16:25;99342.72;;;22.45;100.00
15634;BME280;14654;48.898;8.308;2023-07-24T10:18:51;99343.25;;;22.37;100.00
15634;BME280;14654;48.898;8.308;2023-07-24T10:21:16;99339.63;;;22.27;100.00
15634;BME280;14654;48.898;8.308;2023-07-24T10:23:45;99334.28;;;22.15;100.00
15634;BME280;14654;48.898;8.308;2023-07-24T10:26:14;99336.34;;;21.99;100.00
15634;BME280;14654;48.898;8.308;2023-07-24T10:28:41;99342.47;;;21.86;100.00
15634;BME280;14654;48.898;8.308;2023-07-24T10:33:46;99330.41;;;21.71;100.00
15634;BME280;14654;48.898;8.308;2023-07-24T10:36:12;99318.63;;;21.64;100.00
15634;BME280;14654;48.898;8.308;2023-07-24T10:38:43;99311.97;;;21.58;100.00
15634;BME280;14654;48.898;8.308;2023-07-24T10:41:10;99305.25;;;21.54;100.00
15634;BME280;14654;48.898;8.308;2023-07-24T10:43:58;99302.00;;;21.50;100.00
15634;BME280;14654;48.898;8.308;2023-07-24T10:46:39;99298.00;;;21.44;100.00
15634;BME280;14654;48.898;8.308;2023-07-24T10:49:05;99298.50;;;21.50;100.00
15634;BME280;14654;48.898;8.308;2023-07-24T10:51:31;99301.88;;;21.52;100.00
15634;BME280;14654;48.898;8.308;2023-07-24T10:54:03;99289.25;;;21.57;100.00
15634;BME280;14654;48.898;8.308;2023-07-24T10:56:29;99268.81;;;21.60;100.00
15634;BME280;14654;48.898;8.308;2023-07-24T10:58:54;99257.00;;;21.66;100.00
15634;BME280;14654;48.898;8.308;2023-07-24T11:01:20;99246.88;;;21.73;100.00
15634;BME280;14654;48.898;8.308;2023-07-24T11:03:45;99240.22;;;21.80;100.00
15634;BME280;14654;48.898;8.308;2023-07-24T11:06:16;99224.69;;;21.88;100.00
15634;BME280;14654;48.898;8.308;2023-07-24T11:08:42;99219.09;;;21.93;100.00
15634;BME280;14654;48.898;8.308;2023-07-24T11:11:08;99225.47;;;22.02;100.00
15634;BME280;14654;48.898;8.308;2023-07-24T11:13:33;99228.09;;;22.02;100.00
15634;BME280;14654;48.898;8.308;2023-07-24T11:16:05;99237.97;;;22.11;100.00
15634;BME280;14654;48.898;8.308;2023-07-24T11:18:30;99242.47;;;22.22;100.00
15634;BME280;14654;48.898;8.308;2023-07-24T11:20:56;99230.44;;;22.42;100.00
15634;BME280;14654;48.898;8.308;2023-07-24T11:23:23;99233.16;;;22.76;100.00
15634;BME280;14654;48.898;8.308;2023-07-24T11:25:53;99231.97;;;23.03;100.00
15634;BME280;14654;48.898;8.308;2023-07-24T11:28:18;99255.03;;;23.35;100.00
15634;BME280;14654;48.898;8.308;2023-07-24T11:30:44;99259.31;;;23.59;100.00
15634;BME280;14654;48.898;8.308;2023-07-24T11:33:11;99266.81;;;23.86;100.00
15634;BME280;14654;48.898;8.308;2023-07-24T11:35:38;99263.31;;;23.86;100.00
15634;BME280;14654;48.898;8.308;2023-07-24T11:38:05;99261.28;;;24.01;100.00
15634;BME280;14654;48.898;8.308;2023-07-24T11:40:33;99260.75;;;24.07;100.00
15634;BME280;14654;48.898;8.308;2023-07-24T11:42:59;99269.44;;;23.98;100.00
15634;BME280;14654;48.898;8.308;2023-07-24T11:45:24;99280.34;;;24.04;100.00
15634;BME280;14654;48.898;8.308;2023-07-24T11:47:50;99301.03;;;23.99;100.00
15634;BME280;14654;48.898;8.308;2023-07-24T11:50:16;99284.19;;;24.00;100.00
15634;BME280;14654;48.898;8.308;2023-07-24T11:52:47;99274.25;;;24.04;100.00
15634;BME280;14654;48.898;8.308;2023-07-24T11:55:15;99277.84;;;24.03;100.00
15634;BME280;14654;48.898;8.308;2023-07-24T11:57:41;99282.84;;;24.06;100.00
15634;BME280;14654;48.898;8.308;2023-07-24T12:00:18;99283.97;;;23.92;98.94
15634;BME280;14654;48.898;8.308;2023-07-24T12:02:44;99288.13;;;24.17;98.80
15634;BME280;14654;48.898;8.308;2023-07-24T12:05:10;99288.84;;;24.19;99.30
15634;BME280;14654;48.898;8.308;2023-07-24T12:07:35;99285.84;;;24.45;99.62
15634;BME280;14654;48.898;8.308;2023-07-24T12:10:05;99287.69;;;24.55;100.00
15634;BME280;14654;48.898;8.308;2023-07-24T12:12:48;99291.53;;;24.29;98.77
15634;BME280;14654;48.898;8.308;2023-07-24T12:15:14;99283.19;;;24.13;99.78
15634;BME280;14654;48.898;8.308;2023-07-24T12:17:40;99272.19;;;23.85;97.71
15634;BME280;14654;48.898;8.308;2023-07-24T12:20:07;99270.94;;;23.68;98.32
15634;BME280;14654;48.898;8.308;2023-07-24T12:22:37;99274.41;;;23.80;98.47
15634;BME280;14654;48.898;8.308;2023-07-24T12:25:03;99268.84;;;23.94;98.29
15634;BME280;14654;48.898;8.308;2023-07-24T12:27:29;99268.59;;;23.86;97.44
15634;BME280;14654;48.898;8.308;2023-07-24T12:29:54;99252.91;;;24.17;97.98
15634;BME280;14654;48.898;8.308;2023-07-24T12:32:20;99251.69;;;24.21;97.18
15634;BME280;14654;48.898;8.308;2023-07-24T12:34:46;99249.38;;;24.28;95.60
15634;BME280;14654;48.898;8.308;2023-07-24T12:37:12;99250.03;;;24.41;94.55
15634;BME280;14654;48.898;8.308;2023-07-24T12:39:37;99247.13;;;24.44;93.91
15634;BME280;14654;48.898;8.308;2023-07-24T12:42:04;99236.09;;;24.60;93.77
15634;BME280;14654;48.898;8.308;2023-07-24T12:44:29;99235.34;;;24.70;92.55
15634;BME280;14654;48.898;8.308;2023-07-24T12:46:55;99246.16;;;24.88;92.65
15634;BME280;14654;48.898;8.308;2023-07-24T12:49:20;99237.81;;;24.92;94.01
15634;BME280;14654;48.898;8.308;2023-07-24T12:51:45;99235.72;;;25.17;92.23
15634;BME280;14654;48.898;8.308;2023-07-24T12:54:11;99236.91;;;25.03;89.50